ADDS METAR Data INFO
IDs: Format: Raw Decoded Include TAF

Data at: 0858 UTC 19 Jun 2018

KPPO 190835Z AUTO 00000KT 3SM BR OVC003 19/19 A2999 RMK AO2 T01910188
KPPO 190815Z AUTO 02003KT 4SM BR OVC003 19/19 A2998 RMK AO2 T01920188
KPPO 190755Z AUTO 35005KT 10SM OVC003 19/19 A2998 RMK AO2 T01910187
KPPO 190735Z AUTO 34005KT 5SM BR OVC003 19/19 A2999 RMK AO2 T01930190
KPPO 190715Z AUTO 34005KT 7SM OVC003 20/19 A2999 RMK AO2 T01960191
KPPO 190655Z AUTO 34005KT 10SM OVC003 20/19 A3000 RMK AO2 LTG DSNT SE T01980193
KPPO 190635Z AUTO 33004KT 10SM OVC005 20/20 A3000 RMK AO2 T02010195
KPPO 190615Z AUTO 33007KT 10SM OVC005 21/20 A3000 RMK AO2 T02060198
KPPO 190555Z AUTO 32007KT 10SM BKN005 OVC048 21/20 A3001 RMK AO2 T02120203 10249 20212 403400212
KPPO 190535Z AUTO 32007KT 10SM BKN005 BKN008 OVC050 21/21 A3001 RMK AO2 LTG DSNT W T02130205
KPPO 190515Z AUTO 27005KT 10SM OVC005 22/21 A3002 RMK AO2 T02150205
KPPO 190455Z AUTO 29003KT 10SM OVC007 22/21 A3002 RMK AO2 LTG DSNT W T02150205
KPPO 190435Z AUTO 30003KT 10SM OVC007 22/20 A3001 RMK AO2 T02150203
KPPO 190415Z AUTO 29003KT 10SM OVC005 21/20 A3001 RMK AO2 T02120203
KPPO 190355Z AUTO 32006KT 10SM OVC007 22/20 A3001 RMK AO2 LTG DSNT SW T02150203
KPPO 190335Z AUTO 32009KT 10SM BKN007 22/20 A3001 RMK AO2 LTG DSNT SE AND SW T02150202
KPPO 190315Z AUTO 34008G16KT 10SM SCT009 22/20 A3000 RMK AO2 LTG DSNT W T02200202
KPPO 190255Z AUTO 34007KT 10SM CLR 23/20 A2999 RMK AO2 LTG DSNT W T02250202
KPPO 190235Z AUTO 33006KT 10SM VCTS CLR 23/20 A2999 RMK AO2 T02280200
KPPO 190215Z AUTO 32009G15KT 10SM CLR 23/20 A2999 RMK AO2 LTG DSNT S AND SW T02310202
KPPO 190155Z AUTO 30007KT 10SM CLR 23/20 A2999 RMK AO2 LTG DSNT S T02300201
KPPO 190135Z AUTO 31006KT 10SM CLR 23/20 A2996 RMK AO2 LTG DSNT SE THRU NW T02310200
KPPO 190115Z AUTO 32007KT 10SM CLR 23/20 A2996 RMK AO2 LTG DSNT E AND SE T02330201
KPPO 190055Z AUTO 34009KT 10SM CLR 24/20 A2996 RMK AO2 LTG DSNT SE AND S T02380202
KPPO 190035Z AUTO 34009KT 10SM VCTS CLR 24/21 A2996 RMK AO2 LTG DSNT W T02410205
KPPO 190015Z AUTO 35013G18KT 10SM SCT048 SCT055 SCT065 24/21 A2996 RMK AO2 T02430206
KPPO 182355Z AUTO 35014G30KT 10SM SCT048 BKN050 BKN075 25/21 A2996 RMK AO2 LTG DSNT SE T02510205 10340 20251
KPPO 182335Z AUTO 27009KT 10SM SCT050 SCT075 SCT110 32/22 A2994 RMK AO2 LTG DSNT NW T03180223
KPPO 182315Z AUTO 28008KT 10SM SCT055 SCT065 SCT110 33/22 A2993 RMK AO2 LTG DSNT NW T03250221
KPPO 182255Z AUTO 26011G16KT 10SM SCT055 SCT080 32/22 A2993 RMK AO2 LTG DSNT N AND S T03240218
KPPO 182235Z AUTO 26012KT 10SM SCT060 SCT065 33/22 A2992 RMK AO2 LTG DSNT NW T03300221
KPPO 182215Z AUTO 24011G16KT 10SM BKN050 BKN070 BKN085 33/22 A2992 RMK AO2 LTG DSNT N T03310220
KPPO 182155Z AUTO 25010G16KT 10SM SCT050 BKN065 33/22 A2992 RMK AO2 LTG DSNT N T03300221
KPPO 182135Z AUTO 26011G16KT 10SM SCT050 SCT065 33/22 A2992 RMK AO2 T03320219
KPPO 182115Z AUTO 24013G20KT 10SM SCT050 SCT060 34/22 A2991 RMK AO2 T03390220
KPPO 182055Z AUTO 24012G18KT 10SM SCT050 34/23 A2992 RMK AO2 LTG DSNT N T03370225
KPPO 182035Z AUTO 26010G15KT 10SM SCT050 34/23 A2992 RMK AO2 T03400231
KPPO 182015Z AUTO 26010G15KT 10SM SCT050 33/23 A2994 RMK AO2 T03340225
KPPO 181955Z AUTO 26012G18KT 10SM SCT050 34/22 A2994 RMK AO2 T03360223
KPPO 181935Z AUTO 24015G18KT 10SM CLR 34/22 A2995 RMK AO2 T03390220
KPPO 181915Z AUTO 24013G18KT 10SM CLR 34/22 A2995 RMK AO2 T03370219
KPPO 181855Z AUTO 26012KT 10SM SCT049 33/22 A2996 RMK AO2 T03340223
KPPO 181835Z AUTO 26011G18KT 10SM SCT049 34/22 A2997 RMK AO2 T03360221
KPPO 181815Z AUTO 25010KT 10SM SCT047 33/23 A2998 RMK AO2 T03340229
KPPO 181755Z AUTO 25009G15KT 10SM SCT070 SCT080 SCT090 33/23 A2998 RMK AO2 T03310226 10333 20260
KPPO 181735Z AUTO 26009G19KT 10SM SCT044 SCT050 SCT070 32/22 A2999 RMK AO2 T03220223
KPPO 181715Z AUTO 26008KT 10SM SCT044 SCT050 SCT080 32/23 A2999 RMK AO2 T03190229
KPPO 181655Z AUTO 24009KT 10SM SCT045 SCT055 SCT100 33/23 A3000 RMK AO2 T03260232
KPPO 181635Z AUTO 25009G15KT 10SM CLR 32/23 A3001 RMK AO2 T03240232
KPPO 181615Z AUTO 25007KT 10SM CLR 32/24 A3001 RMK AO2 T03190237
KPPO 181555Z AUTO 27007G15KT 10SM CLR 32/23 A3001 RMK AO2 T03150234
KPPO 181535Z AUTO 25007KT 10SM CLR 32/24 A3001 RMK AO2 T03150239
KPPO 181515Z AUTO 26007G15KT 10SM CLR 31/24 A3002 RMK AO2 T03100236
KPPO 181455Z AUTO 26012G15KT 10SM CLR 30/23 A3002 RMK AO2 T03040234
KPPO 181435Z AUTO 25010G16KT 10SM CLR 30/23 A3002 RMK AO2 T02990233
KPPO 181415Z AUTO 25011G15KT 10SM CLR 30/23 A3002 RMK AO2 T02960234
KPPO 181355Z AUTO 26010KT 10SM CLR 29/24 A3002 RMK AO2 T02910236
KPPO 181335Z AUTO 24008KT 10SM CLR 29/23 A3002 RMK AO2 T02850232
KPPO 181315Z AUTO 24008KT 10SM CLR 28/23 A3002 RMK AO2 T02800234
KPPO 181255Z AUTO 23008KT 10SM CLR 27/23 A3002 RMK AO2 T02740231
KPPO 181235Z AUTO 25007KT 10SM CLR 27/23 A3002 RMK AO2 T02680230
KPPO 181215Z AUTO 24007KT 10SM CLR 26/23 A3001 RMK AO2 T02620227
KPPO 181155Z AUTO 23006KT 10SM CLR 26/23 A3000 RMK AO2 T02580228 10258 20240
KPPO 181135Z AUTO 23006KT 10SM CLR 25/23 A3000 RMK AO2 T02500226
KPPO 181115Z AUTO 23005KT 10SM CLR 25/23 A3000 RMK AO2 T02450225
KPPO 181055Z AUTO 23004KT 10SM CLR 24/22 A3000 RMK AO2 T02410224
KPPO 181035Z AUTO 23005KT 10SM CLR 24/22 A3000 RMK AO2 T02410223
KPPO 181015Z AUTO 23006KT 10SM CLR 24/22 A3000 RMK AO2 T02430223
KPPO 180955Z AUTO 22006KT 10SM CLR 24/22 A3000 RMK AO2 T02440224
KPPO 180935Z AUTO 22006KT 10SM CLR 25/23 A3000 RMK AO2 T02460225
KPPO 180915Z AUTO 22007KT 10SM CLR 25/23 A3000 RMK AO2 T02480226
KPPO 180855Z AUTO 22006KT 10SM CLR 25/23 A3000 RMK AO2 T02480226
KPPO 180835Z AUTO 22006KT 10SM CLR 25/23 A3000 RMK AO2 T02480227
KPPO 180815Z AUTO 22005KT 10SM CLR 25/23 A3000 RMK AO2 T02480227
KPPO 180755Z AUTO 21005KT 10SM CLR 25/23 A3000 RMK AO2 T02470227
KPPO 180735Z AUTO 21005KT 10SM CLR 25/23 A3000 RMK AO2 T02510228
KPPO 180715Z AUTO 21006KT 10SM CLR 25/23 A3000 RMK AO2 T02530228
KPPO 180655Z AUTO 21005KT 10SM CLR 25/23 A3001 RMK AO2 T02530227
KPPO 180635Z AUTO 21005KT 10SM CLR 26/23 A3001 RMK AO2 T02550227
KPPO 180615Z AUTO 21005KT 10SM CLR 26/23 A3001 RMK AO2 T02580226
KPPO 180555Z AUTO 21005KT 10SM CLR 26/23 A3001 RMK AO2 T02560226 10311 20255 403390211
KPPO 180535Z AUTO 21005KT 10SM CLR 26/23 A3002 RMK AO2 T02560225
KPPO 180515Z AUTO 21004KT 10SM CLR 26/22 A3002 RMK AO2 T02570222
KPPO 180455Z AUTO 20005KT 10SM CLR 26/22 A3002 RMK AO2 T02600221
KPPO 180435Z AUTO 22005KT 10SM CLR 26/22 A3002 RMK AO2 T02600220
KPPO 180415Z AUTO 20005KT 10SM CLR 26/22 A3002 RMK AO2 T02630218
KPPO 180355Z AUTO 21004KT 10SM CLR 26/22 A3002 RMK AO2 T02600217
KPPO 180335Z AUTO 21003KT 10SM CLR 27/22 A3002 RMK AO2 T02690215
KPPO 180315Z AUTO 21004KT 10SM CLR 27/22 A3002 RMK AO2 T02650215
KPPO 180255Z AUTO 21005KT 10SM CLR 28/22 A3002 RMK AO2 T02750215
KPPO 180235Z AUTO 21004KT 10SM CLR 27/22 A3001 RMK AO2 T02660215
KPPO 180215Z AUTO 21004KT 10SM CLR 28/22 A3001 RMK AO2 T02780215
KPPO 180155Z AUTO 22005KT 10SM CLR 28/22 A3000 RMK AO2 T02770217
KPPO 180135Z AUTO 22005KT 10SM CLR 29/22 A2999 RMK AO2 T02860217
KPPO 180115Z AUTO 21006KT 10SM CLR 29/22 A2998 RMK AO2 T02930217
KPPO 180055Z AUTO 20004KT 10SM CLR 30/22 A2998 RMK AO2 T02980215
KPPO 180035Z AUTO 21005KT 10SM CLR 30/21 A2998 RMK AO2 T03040214
KPPO 180015Z AUTO 22007KT 10SM CLR 31/22 A2999 RMK AO2 T03070215
KPPO 172355Z AUTO 21007KT 10SM CLR 31/22 A2998 RMK AO2 T03110216 10339 20311
KPPO 172335Z AUTO 21009G15KT 10SM CLR 32/22 A2998 RMK AO2 T03200215
KPPO 172315Z AUTO 21012G17KT 10SM SCT055 32/22 A2999 RMK AO2 T03230218
KPPO 172255Z AUTO 22011G17KT 10SM SCT060 33/21 A2999 RMK AO2 T03260212
KPPO 172235Z AUTO 22011KT 10SM SCT060 33/21 A2999 RMK AO2 T03270212
KPPO 172215Z AUTO 20012G16KT 10SM SCT060 33/21 A3000 RMK AO2 T03330214
KPPO 172155Z AUTO 22013G16KT 10SM CLR 33/21 A3000 RMK AO2 T03300210
KPPO 172135Z AUTO 22011G16KT 10SM SCT100 33/21 A3001 RMK AO2 T03300213
KPPO 172115Z AUTO 22008G14KT 10SM SCT055 33/21 A3001 RMK AO2 T03320212